createdAt,value
2019-06-19T18:23:38.529Z,29.83
2019-06-19T18:24:37.173Z,29.85
2019-06-19T18:25:35.729Z,29.82
2019-06-19T18:26:34.440Z,29.8
2019-06-19T18:27:33.093Z,29.74
2019-06-19T18:28:31.625Z,29.74
2019-06-19T18:29:30.177Z,29.74
2019-06-19T18:30:28.743Z,29.8
2019-06-19T18:31:27.336Z,29.71
2019-06-19T18:32:25.860Z,29.7
2019-06-19T18:33:24.389Z,29.68
2019-06-19T18:34:22.910Z,29.7
2019-06-19T18:35:21.433Z,29.73
2019-06-19T18:36:19.982Z,29.65
2019-06-19T18:37:18.634Z,29.67
2019-06-19T18:38:17.211Z,29.63
2019-06-19T18:39:15.765Z,29.57
2019-06-19T18:40:14.291Z,29.63
2019-06-19T18:41:13.054Z,29.61
2019-06-19T18:42:11.591Z,29.52
2019-06-19T18:43:10.161Z,29.61
2019-06-19T18:44:08.819Z,29.52
2019-06-19T18:45:07.823Z,29.64
2019-06-19T18:46:06.002Z,29.6
2019-06-19T18:47:04.535Z,29.64
2019-06-19T18:49:12.285Z,29.55
2019-06-19T18:50:10.823Z,29.49
2019-06-19T18:51:09.369Z,29.51
2019-06-19T18:52:07.896Z,29.61
2019-06-19T18:53:06.594Z,29.49
2019-06-19T18:56:47.877Z,29.51
2019-06-19T18:57:46.579Z,29.41
2019-06-19T18:58:45.172Z,29.36
2019-06-19T18:59:43.710Z,29.39
2019-06-19T19:00:42.415Z,29.28
2019-06-19T19:01:41.120Z,29.24
2019-06-19T19:02:39.631Z,29.23
2019-06-19T19:03:38.342Z,29.09
2019-06-19T19:04:36.917Z,29.15
2019-06-19T19:05:35.496Z,29.09
2019-06-19T19:06:34.181Z,29.05
2019-06-19T19:07:32.945Z,29.02
2019-06-19T19:08:31.720Z,29.04
2019-06-19T19:09:30.310Z,29.05
2019-06-19T19:10:28.891Z,29
2019-06-19T19:11:27.517Z,28.89
2019-06-19T19:12:26.108Z,28.83
2019-06-19T19:13:24.628Z,28.88
2019-06-19T19:14:23.169Z,28.85
2019-06-19T19:15:21.677Z,28.86
2019-06-19T19:16:20.273Z,28.71
2019-06-19T19:17:18.965Z,28.71
2019-06-19T19:18:17.590Z,28.71
2019-06-19T19:19:16.161Z,28.62
2019-06-19T19:20:14.850Z,28.58
2019-06-19T19:21:16.937Z,28.54
2019-06-19T19:22:12.090Z,28.51
2019-06-19T19:23:10.612Z,28.52
2019-06-19T19:24:09.216Z,28.54
2019-06-19T19:25:07.775Z,28.4
2019-06-19T19:26:06.343Z,28.4
2019-06-19T19:27:05.085Z,28.31
2019-06-19T19:28:03.694Z,28.39
2019-06-19T19:29:02.232Z,28.29
2019-06-19T19:30:01.074Z,28.3
2019-06-19T19:30:59.612Z,28.3
2019-06-19T19:31:58.145Z,28.34
2019-06-19T19:32:56.871Z,28.22
2019-06-19T19:33:55.442Z,28.25
2019-06-19T19:34:54.021Z,28.3
2019-06-19T19:35:52.776Z,28.3
2019-06-19T19:36:51.440Z,28.29
2019-06-19T19:37:49.972Z,28.24
2019-06-19T19:38:48.494Z,28.22
2019-06-19T19:39:47.226Z,28.17
2019-06-19T19:40:48.690Z,28.14
2019-06-19T19:41:44.313Z,28.14
2019-06-19T19:42:42.994Z,28.15
2019-06-19T19:43:41.594Z,28.15
2019-06-19T19:44:40.149Z,28.07
2019-06-19T19:45:38.722Z,28.14
2019-06-19T19:46:37.387Z,28.15
2019-06-19T19:47:35.951Z,28.12
2019-06-19T19:48:34.481Z,28.19
2019-06-19T19:49:33.298Z,28.18
2019-06-19T19:50:31.838Z,28.15
2019-06-19T19:51:30.373Z,28.11
2019-06-19T19:52:28.966Z,28.06
2019-06-19T19:53:27.602Z,28.03
2019-06-19T19:54:26.135Z,27.97
2019-06-19T19:55:26.116Z,27.99
2019-06-19T19:56:23.271Z,27.88
2019-06-19T19:57:21.832Z,27.93
2019-06-19T19:58:20.389Z,27.87
2019-06-19T19:59:18.907Z,27.96
2019-06-19T20:00:17.467Z,27.81
2019-06-19T20:01:16.002Z,27.79
2019-06-19T20:02:14.616Z,27.85
2019-06-19T20:03:13.287Z,27.85
2019-06-19T20:04:11.810Z,27.81
2019-06-19T20:05:10.378Z,27.78
2019-06-19T20:06:09.133Z,27.74
2019-06-19T20:07:07.687Z,27.82
2019-06-19T20:08:06.285Z,27.82
2019-06-19T20:09:04.914Z,27.78
2019-06-19T20:10:03.511Z,27.81
2019-06-19T20:11:02.083Z,27.84
2019-06-19T20:12:00.651Z,27.84
2019-06-19T20:12:59.395Z,27.82
2019-06-19T20:13:57.920Z,27.84
2019-06-19T20:14:56.487Z,27.79
2019-06-19T20:15:55.329Z,27.74
2019-06-19T20:16:53.859Z,27.63
2019-06-19T20:17:52.367Z,27.6
2019-06-19T20:18:51.154Z,27.59
2019-06-19T20:19:49.703Z,27.59
2019-06-19T20:20:48.241Z,27.6
2019-06-19T20:21:46.766Z,27.54
2019-06-19T20:22:45.298Z,27.49
2019-06-19T20:23:43.832Z,27.49
2019-06-19T20:24:42.423Z,27.57
2019-06-19T20:25:41.036Z,27.43
2019-06-19T20:26:39.655Z,27.37
2019-06-19T20:27:38.195Z,27.37
2019-06-19T20:28:36.941Z,27.37
2019-06-19T20:29:35.513Z,27.36
2019-06-19T20:30:34.071Z,27.28
2019-06-19T20:31:32.734Z,27.31
2019-06-19T20:32:45.759Z,27.25
2019-06-19T20:33:29.890Z,27.25
2019-06-19T20:34:28.441Z,27.25
2019-06-19T20:35:27.160Z,27.22
2019-06-19T20:36:25.714Z,27.25
2019-06-19T20:37:24.226Z,27.22
2019-06-19T20:38:23.120Z,27.31
2019-06-19T20:39:21.685Z,27.25
2019-06-19T20:40:20.230Z,27.12
2019-06-19T20:41:18.952Z,27.13
2019-06-19T20:42:17.557Z,27.13
2019-06-19T20:43:16.090Z,27.14
2019-06-19T20:44:14.606Z,27.18
2019-06-19T20:45:13.154Z,27.18
2019-06-19T20:46:24.407Z,27.1
2019-06-19T20:47:21.552Z,27.12
2019-06-19T20:48:08.961Z,27.1
2019-06-19T20:49:07.603Z,27.06
2019-06-19T20:50:06.130Z,27.06
2019-06-19T20:51:04.946Z,27.07
2019-06-19T20:52:03.584Z,27.02
2019-06-19T20:53:02.100Z,27.03
2019-06-19T20:54:00.624Z,27
2019-06-19T20:54:59.232Z,27.06
2019-06-19T20:55:57.801Z,27.02
2019-06-19T20:56:56.330Z,27.03
2019-06-19T20:57:54.926Z,26.97
2019-06-19T20:59:01.563Z,26.97
2019-06-19T20:59:52.055Z,27.06
2019-06-19T21:00:50.657Z,27.06
2019-06-19T21:01:49.422Z,26.94
2019-06-19T21:02:47.978Z,26.92
2019-06-19T21:03:46.634Z,26.88
2019-06-19T21:04:45.335Z,26.87
2019-06-19T21:05:43.895Z,26.85
2019-06-19T21:06:43.671Z,26.84
2019-06-19T21:07:40.954Z,26.81
2019-06-19T21:08:39.530Z,26.85
2019-06-19T21:09:38.064Z,26.85
2019-06-19T21:10:36.606Z,26.82
2019-06-19T21:11:35.272Z,26.84
2019-06-19T21:12:33.818Z,26.73
2019-06-19T21:13:32.391Z,26.81
2019-06-19T21:14:31.296Z,26.8
2019-06-19T21:15:29.863Z,26.8
2019-06-19T21:16:28.458Z,26.69
2019-06-19T21:17:27.114Z,26.7
2019-06-19T21:18:25.679Z,26.67
2019-06-19T21:19:24.205Z,26.69
2019-06-19T21:20:22.751Z,26.69
2019-06-19T21:21:21.333Z,26.8
2019-06-19T21:22:19.889Z,26.82
2019-06-19T21:23:18.451Z,26.81
2019-06-19T21:24:17.072Z,26.76
2019-06-19T21:25:15.767Z,26.77
2019-06-19T21:26:14.574Z,26.75
2019-06-19T21:27:13.255Z,26.7
2019-06-19T21:28:11.855Z,26.72
2019-06-19T21:29:10.395Z,26.72
2019-06-19T21:30:08.946Z,26.72
2019-06-19T21:31:07.486Z,26.66
2019-06-19T21:32:06.081Z,26.66
2019-06-19T21:33:04.707Z,26.63
2019-06-19T21:34:03.363Z,26.6
2019-06-19T21:35:01.823Z,26.58
2019-06-19T21:36:00.348Z,26.58
2019-06-19T21:36:58.986Z,26.57
2019-06-19T21:37:57.599Z,26.52
2019-06-19T21:38:56.134Z,26.58
2019-06-19T21:39:54.747Z,26.55
2019-06-19T21:40:53.407Z,26.58
2019-06-19T21:41:51.971Z,26.55
2019-06-19T21:42:50.495Z,26.57
2019-06-19T21:43:49.047Z,26.6
2019-06-19T21:44:47.631Z,26.58
2019-06-19T21:45:46.172Z,26.52
2019-06-19T21:46:44.707Z,26.57
2019-06-19T21:47:43.237Z,26.58
2019-06-19T21:48:41.753Z,26.63
2019-06-19T21:49:40.330Z,26.7
2019-06-19T21:50:38.975Z,26.66
2019-06-19T21:51:37.568Z,26.67
2019-06-19T21:52:36.118Z,26.52
2019-06-19T21:53:34.632Z,26.55
2019-06-19T21:54:33.438Z,26.55
2019-06-19T21:55:31.979Z,26.58
2019-06-19T21:56:30.564Z,26.57
2019-06-19T21:57:29.293Z,26.54
2019-06-19T21:58:27.822Z,26.47
2019-06-19T21:59:26.355Z,26.54
2019-06-19T22:00:24.883Z,26.55
2019-06-19T22:01:23.422Z,26.43
2019-06-19T22:02:21.977Z,26.4
2019-06-19T22:03:20.651Z,26.4
2019-06-19T22:04:19.325Z,26.39
2019-06-19T22:05:17.855Z,26.39
2019-06-19T22:06:16.411Z,26.39
2019-06-19T22:07:15.598Z,26.36
2019-06-19T22:08:13.845Z,26.39
2019-06-19T22:09:12.392Z,26.39
2019-06-19T22:10:10.966Z,26.37
2019-06-19T22:11:09.506Z,26.39
2019-06-19T22:12:08.038Z,26.51
2019-06-19T22:13:06.576Z,26.36
2019-06-19T22:14:05.123Z,26.39
2019-06-19T22:15:03.704Z,26.43
2019-06-19T22:16:02.239Z,26.4
2019-06-19T22:17:00.887Z,26.52
2019-06-19T22:17:59.456Z,26.5
2019-06-19T22:18:57.992Z,26.5
2019-06-19T22:19:56.507Z,26.54
2019-06-19T22:20:55.340Z,26.58
2019-06-19T22:21:53.881Z,26.58
2019-06-19T22:22:52.514Z,26.57
2019-06-19T22:23:51.444Z,26.6
2019-06-19T22:24:49.938Z,26.58
2019-06-19T22:25:48.648Z,26.58
2019-06-19T22:26:47.562Z,26.6
2019-06-19T22:27:46.075Z,26.62
2019-06-19T22:28:44.721Z,26.5
2019-06-19T22:29:43.327Z,26.57
2019-06-19T22:30:41.874Z,26.58
2019-06-19T22:31:40.428Z,26.52
2019-06-19T22:32:38.952Z,26.55
2019-06-19T22:33:37.501Z,26.58
2019-06-19T22:34:36.010Z,26.35
2019-06-19T22:35:34.591Z,26.15
2019-06-19T22:36:33.250Z,26.02
2019-06-19T22:42:10.402Z,25.21
2019-06-19T22:42:56.147Z,25.08
2019-06-19T22:43:54.687Z,24.96
2019-06-19T22:44:53.306Z,24.95
2019-06-19T22:45:51.870Z,25.05
2019-06-19T22:46:50.546Z,25.03
2019-06-19T22:47:49.135Z,25.05
2019-06-19T22:48:47.793Z,25.08
2019-06-19T22:49:46.350Z,25.1
2019-06-19T22:50:45.152Z,25.14
2019-06-19T22:51:43.750Z,24.88
2019-06-19T22:52:42.336Z,24.93
2019-06-19T22:53:40.855Z,24.98
2019-06-19T22:54:39.454Z,24.96
2019-06-19T22:55:37.974Z,24.95
2019-06-19T22:58:22.138Z,24.8
2019-06-19T23:00:39.078Z,24.67
2019-06-19T23:01:37.641Z,24.69
2019-06-19T23:02:36.184Z,24.67
2019-06-19T23:03:34.856Z,24.65
2019-06-19T23:04:33.422Z,24.69
2019-06-19T23:05:31.981Z,24.67
2019-06-19T23:06:30.508Z,24.64
2019-06-19T23:07:29.068Z,24.76
2019-06-19T23:08:27.592Z,24.73
2019-06-19T23:09:26.124Z,24.64
2019-06-19T23:10:24.699Z,24.6
2019-06-19T23:11:23.292Z,24.55
2019-06-19T23:12:27.486Z,24.61
2019-06-19T23:13:20.413Z,24.6
2019-06-19T23:14:19.291Z,24.49
2019-06-19T23:15:17.813Z,24.61
2019-06-19T23:16:16.354Z,24.65
2019-06-19T23:17:15.031Z,24.64
2019-06-19T23:18:13.681Z,24.68
2019-06-19T23:19:12.210Z,24.65
2019-06-19T23:20:10.779Z,24.71
2019-06-19T23:21:09.350Z,24.69
2019-06-19T23:22:07.972Z,24.53
2019-06-19T23:23:06.497Z,24.64
2019-06-19T23:24:05.159Z,24.68
2019-06-19T23:25:03.796Z,24.64
2019-06-19T23:26:02.346Z,24.65
2019-06-19T23:27:01.097Z,24.65
2019-06-19T23:27:59.651Z,24.64
2019-06-19T23:28:58.184Z,24.39
2019-06-19T23:29:56.719Z,24.35
2019-06-19T23:30:55.372Z,24.39
2019-06-19T23:31:53.915Z,24.34
2019-06-19T23:32:52.440Z,24.34
2019-06-19T23:33:50.982Z,24.27
2019-06-19T23:34:49.519Z,24.25
2019-06-19T23:35:48.044Z,24.37
2019-06-19T23:36:46.833Z,24.3
2019-06-19T23:37:45.581Z,24.24
2019-06-19T23:38:44.131Z,24.27
2019-06-19T23:39:42.792Z,24.28
2019-06-19T23:40:41.388Z,24.27
2019-06-19T23:41:39.947Z,24.24
2019-06-19T23:42:43.820Z,24.15
2019-06-19T23:43:37.069Z,24.16
2019-06-19T23:45:36.891Z,24.18
2019-06-19T23:46:35.465Z,24.15
2019-06-19T23:47:33.974Z,24.05
2019-06-19T23:48:32.953Z,23.91
2019-06-19T23:49:31.059Z,23.84
2019-06-19T23:50:29.624Z,23.87
2019-06-19T23:51:28.157Z,23.85
2019-06-19T23:52:26.689Z,23.8
2019-06-19T23:53:25.229Z,23.72
2019-06-19T23:54:23.767Z,23.73
2019-06-19T23:55:22.320Z,23.76
2019-06-19T23:56:20.886Z,23.68
2019-06-19T23:57:19.376Z,23.66
2019-06-19T23:58:17.900Z,23.79
2019-06-19T23:59:16.539Z,23.79
